Time;durP1;ratioP1;P1;durP2;ratioP2;P2;SDS_P1;SDS_P2;PMS_P1;PMS_P2;Temp;Humidity;BMP_temperature;BMP_pressure;BME280_temperature;BME280_humidity;BME280_pressure;Samples;Min_cycle;Max_cycle;Signal;HPM_P1;HPM_P2
2022/06/06 00:02:16;;;;;;;2.30;1.40;;;24.60;58.00;;;;;;5093023;28;20386;-64
2022/06/06 00:04:42;;;;;;;2.83;1.33;;;24.70;58.10;;;;;;5093460;28;20390;-64
2022/06/06 00:07:08;;;;;;;1.98;1.38;;;24.60;58.10;;;;;;5093100;28;20466;-64
2022/06/06 00:09:34;;;;;;;2.03;1.30;;;24.60;58.00;;;;;;5092803;28;20431;-65
2022/06/06 00:12:02;;;;;;;2.10;1.23;;;24.60;58.00;;;;;;5094310;28;20425;-65
2022/06/06 00:14:28;;;;;;;2.40;1.20;;;24.60;58.00;;;;;;5095224;28;20386;-65
2022/06/06 00:16:54;;;;;;;2.10;1.27;;;24.60;58.00;;;;;;5094800;28;20439;-65
2022/06/06 00:19:20;;;;;;;2.00;1.10;;;24.60;58.00;;;;;;5094371;28;20383;-65
2022/06/06 00:21:46;;;;;;;1.90;1.25;;;24.60;58.00;;;;;;5094415;28;20390;-65
2022/06/06 00:24:12;;;;;;;1.75;1.25;;;24.60;58.00;;;;;;5095785;28;20382;-65
2022/06/06 00:26:39;;;;;;;2.42;1.40;;;24.60;57.90;;;;;;5094079;28;20394;-65
2022/06/06 00:29:06;;;;;;;3.28;1.20;;;24.60;57.90;;;;;;5093645;28;20457;-65
2022/06/06 00:37:05;;;;;;;2.25;1.27;;;24.60;57.90;;;;;;5093160;28;20462;-65
2022/06/06 00:39:31;;;;;;;2.55;1.25;;;24.50;57.90;;;;;;5093232;28;20427;-65
2022/06/06 00:41:57;;;;;;;2.20;1.20;;;24.60;58.00;;;;;;5093399;28;20389;-65
2022/06/06 00:44:29;;;;;;;2.10;1.20;;;24.60;58.00;;;;;;5093558;28;20374;-65
2022/06/06 00:47:06;;;;;;;3.08;1.20;;;24.60;57.90;;;;;;5094465;28;20386;-65
2022/06/06 00:49:42;;;;;;;2.30;1.42;;;24.60;58.00;;;;;;5096032;28;20381;-65
2022/06/06 00:52:16;;;;;;;2.90;1.35;;;24.60;58.00;;;;;;5093495;28;20462;-64
2022/06/06 00:54:44;;;;;;;2.40;1.10;;;24.50;57.90;;;;;;5073320;28;20392;-65
2022/06/06 00:57:15;;;;;;;2.60;1.40;;;24.50;57.90;;;;;;5073076;28;20388;-65
2022/06/06 00:59:44;;;;;;;1.83;1.15;;;24.50;57.90;;;;;;5072676;28;20432;-64
2022/06/06 01:02:12;;;;;;;3.25;1.35;;;24.50;57.90;;;;;;5073301;28;20757;-65
2022/06/06 01:04:39;;;;;;;2.13;1.50;;;24.50;57.90;;;;;;5073051;28;20391;-65
2022/06/06 01:07:07;;;;;;;2.10;1.30;;;24.50;58.00;;;;;;5073239;28;20380;-64
2022/06/06 01:09:32;;;;;;;1.67;1.45;;;24.50;57.90;;;;;;5054740;28;20384;-65
2022/06/06 01:12:03;;;;;;;2.10;1.35;;;24.50;57.90;;;;;;5072737;28;20473;-65
2022/06/06 01:14:36;;;;;;;2.50;1.30;;;24.50;57.90;;;;;;5072829;28;20891;-65
2022/06/06 01:17:18;;;;;;;3.40;1.50;;;24.40;57.80;;;;;;5055299;28;20462;-65
2022/06/06 01:20:12;;;;;;;2.30;1.13;;;24.50;57.90;;;;;;5072166;28;20393;-65
2022/06/06 01:22:40;;;;;;;2.08;1.10;;;24.50;57.90;;;;;;5072609;28;20387;-65
2022/06/06 01:25:15;;;;;;;2.38;1.30;;;24.40;57.90;;;;;;5072517;28;20473;-64
2022/06/06 01:27:46;;;;;;;2.10;1.20;;;24.50;57.90;;;;;;5054157;28;20380;-65
2022/06/06 01:30:22;;;;;;;1.67;1.33;;;24.50;57.90;;;;;;5072388;28;20433;-64
2022/06/06 01:32:52;;;;;;;2.30;1.17;;;24.40;57.80;;;;;;5072369;28;20450;-65
2022/06/06 01:35:30;;;;;;;2.63;1.20;;;24.50;57.90;;;;;;5072707;28;20933;-65
2022/06/06 01:37:56;;;;;;;2.10;1.20;;;24.40;57.90;;;;;;5072019;28;20888;-65
2022/06/06 01:40:23;;;;;;;1.60;1.20;;;24.40;57.80;;;;;;5072210;28;20432;-65
2022/06/06 01:43:00;;;;;;;2.17;1.20;;;24.40;57.80;;;;;;5072113;28;20388;-65
2022/06/06 01:45:52;;;;;;;1.88;1.10;;;24.40;57.80;;;;;;5072209;28;20411;-65
2022/06/06 01:48:30;;;;;;;1.60;1.15;;;24.40;57.90;;;;;;5072092;28;20471;-65
2022/06/06 01:50:56;;;;;;;2.42;1.20;;;24.40;57.90;;;;;;5053892;28;20404;-65
2022/06/06 01:53:24;;;;;;;1.73;1.17;;;24.40;57.80;;;;;;5081094;28;20434;-65
2022/06/06 01:55:52;;;;;;;1.63;1.20;;;24.40;57.80;;;;;;5091773;28;20390;-65
2022/06/06 01:58:27;;;;;;;2.40;1.38;;;24.40;57.80;;;;;;5092212;28;20941;-65
2022/06/06 02:00:53;;;;;;;2.20;1.17;;;24.40;57.90;;;;;;5092132;28;20366;-64
2022/06/06 02:03:19;;;;;;;1.80;1.20;;;24.40;57.80;;;;;;5092093;28;20396;-65
2022/06/06 02:05:45;;;;;;;1.98;1.13;;;24.40;57.80;;;;;;5091712;28;20383;-65
2022/06/06 02:08:11;;;;;;;2.13;1.20;;;24.40;57.90;;;;;;5092017;28;20397;-65
2022/06/06 02:10:38;;;;;;;1.80;1.27;;;24.40;57.80;;;;;;5091916;28;20515;-65
2022/06/06 02:13:04;;;;;;;1.90;1.10;;;24.40;57.80;;;;;;5091922;28;20402;-65
2022/06/06 02:15:30;;;;;;;1.63;1.20;;;24.40;57.80;;;;;;5091985;28;20382;-65
2022/06/06 02:17:57;;;;;;;2.67;1.10;;;24.40;57.90;;;;;;5090348;28;20398;-65
2022/06/06 02:20:25;;;;;;;2.13;1.20;;;24.40;57.80;;;;;;5092302;28;20382;-65
2022/06/06 02:22:51;;;;;;;1.90;1.10;;;24.40;57.80;;;;;;5091692;28;20386;-65
2022/06/06 02:25:17;;;;;;;1.57;1.10;;;24.30;57.80;;;;;;5091857;28;20378;-65
2022/06/06 02:27:43;;;;;;;2.28;1.30;;;24.30;57.80;;;;;;5091215;28;20386;-65
2022/06/06 02:30:14;;;;;;;1.60;1.20;;;24.40;57.80;;;;;;5092098;28;20405;-65
2022/06/06 02:32:40;;;;;;;1.60;1.30;;;24.30;57.80;;;;;;5091677;28;20468;-65
2022/06/06 02:35:09;;;;;;;2.22;1.13;;;24.30;57.80;;;;;;5091694;28;20402;-65
2022/06/06 02:37:34;;;;;;;1.70;1.20;;;24.30;57.80;;;;;;5091642;28;20398;-64
2022/06/06 02:40:00;;;;;;;2.13;1.10;;;24.30;57.80;;;;;;5089880;28;20944;-65
2022/06/06 02:42:25;;;;;;;1.77;1.20;;;24.30;57.80;;;;;;5091557;28;20386;-65
2022/06/06 02:44:51;;;;;;;1.90;1.10;;;24.30;57.80;;;;;;5091511;28;20378;-65
2022/06/06 02:47:17;;;;;;;2.20;1.00;;;24.30;57.80;;;;;;5091700;28;20387;-65
2022/06/06 02:49:42;;;;;;;1.47;1.23;;;24.30;57.80;;;;;;5091033;28;20739;-65
2022/06/06 02:52:08;;;;;;;1.67;1.20;;;24.30;57.80;;;;;;5091619;28;20418;-65
2022/06/06 02:54:33;;;;;;;2.03;1.40;;;24.30;57.80;;;;;;5090115;28;20440;-65
2022/06/06 02:56:59;;;;;;;1.57;1.10;;;24.30;57.80;;;;;;5091470;28;20736;-65
2022/06/06 02:59:28;;;;;;;1.67;1.15;;;24.30;57.80;;;;;;5091492;28;20377;-65
2022/06/06 03:01:53;;;;;;;2.42;1.20;;;24.30;57.80;;;;;;5093204;28;20522;-65
2022/06/06 03:04:19;;;;;;;2.60;1.10;;;24.30;57.80;;;;;;5097063;28;20461;-65
2022/06/06 03:07:03;;;;;;;1.50;1.20;;;24.30;57.70;;;;;;5094270;28;20394;-65
2022/06/06 03:09:38;;;;;;;1.80;1.20;;;24.30;57.60;;;;;;5095160;28;20377;-65
2022/06/06 03:12:31;;;;;;;1.77;1.20;;;24.30;57.50;;;;;;5094767;28;20449;-65
2022/06/06 03:15:06;;;;;;;1.40;1.30;;;24.30;57.60;;;;;;5095108;28;20443;-65
2022/06/06 03:23:09;;;;;;;2.53;1.33;;;24.20;57.60;;;;;;5095793;28;20908;-65
2022/06/06 03:26:03;;;;;;;2.10;1.27;;;24.30;57.70;;;;;;5094941;28;20389;-65
2022/06/06 03:28:46;;;;;;;2.00;1.20;;;24.20;57.60;;;;;;5095169;28;20478;-65
2022/06/06 03:31:27;;;;;;;2.53;1.10;;;24.30;57.60;;;;;;5097408;28;20545;-64
2022/06/06 03:34:07;;;;;;;2.30;1.10;;;24.20;57.60;;;;;;5092536;28;20394;-65
2022/06/06 03:36:49;;;;;;;2.60;1.25;;;24.20;57.40;;;;;;5095206;28;20480;-65
2022/06/06 03:39:21;;;;;;;2.00;1.30;;;24.20;57.40;;;;;;5093628;28;20476;-65
2022/06/06 03:42:10;;;;;;;3.05;1.20;;;24.20;57.50;;;;;;5094492;28;20455;-65
2022/06/06 03:45:04;;;;;;;1.75;1.10;;;24.20;57.50;;;;;;5094680;28;20380;-65
2022/06/06 03:47:50;;;;;;;1.37;1.07;;;24.20;57.50;;;;;;5095574;28;20426;-65
2022/06/06 03:50:24;;;;;;;1.90;1.13;;;24.20;57.50;;;;;;5100893;28;20937;-65
2022/06/06 03:53:27;;;;;;;2.55;1.33;;;24.20;57.50;;;;;;5113509;28;20427;-65
2022/06/06 03:56:25;;;;;;;1.57;1.20;;;24.20;57.30;;;;;;5112679;28;20405;-65
2022/06/06 03:58:53;;;;;;;1.90;1.20;;;24.20;57.30;;;;;;5093340;28;20385;-65
2022/06/06 04:01:20;;;;;;;1.65;1.20;;;24.20;57.50;;;;;;5094519;28;20477;-65
2022/06/06 04:03:49;;;;;;;3.30;1.45;;;24.20;57.60;;;;;;5094030;28;20386;-65
2022/06/06 04:06:17;;;;;;;2.00;1.33;;;24.10;57.50;;;;;;5094432;28;20374;-65
2022/06/06 04:08:43;;;;;;;2.17;1.20;;;24.20;57.50;;;;;;5100232;28;20729;-65
2022/06/06 04:11:44;;;;;;;1.90;1.40;;;24.20;57.50;;;;;;5113371;28;20776;-65
2022/06/06 04:14:35;;;;;;;1.85;1.10;;;24.20;57.50;;;;;;5100154;28;20396;-65
2022/06/06 04:17:28;;;;;;;1.60;1.10;;;24.10;57.30;;;;;;5114553;28;20392;-65
2022/06/06 04:20:20;;;;;;;2.50;1.33;;;24.10;57.10;;;;;;5113866;28;20400;-65
2022/06/06 04:22:58;;;;;;;2.43;1.40;;;24.10;57.00;;;;;;5114505;28;20415;-65
2022/06/06 04:25:36;;;;;;;1.70;1.20;;;24.10;57.00;;;;;;5114424;28;20471;-65
2022/06/06 04:28:17;;;;;;;1.73;1.13;;;24.10;57.10;;;;;;5113862;28;20414;-65
2022/06/06 04:31:06;;;;;;;2.00;1.10;;;24.10;56.90;;;;;;5107297;28;20395;-65
2022/06/06 04:33:50;;;;;;;2.80;1.27;;;24.10;57.10;;;;;;5093912;28;20469;-64
2022/06/06 04:36:30;;;;;;;1.58;1.15;;;24.10;57.10;;;;;;5093847;28;20371;-65
2022/06/06 04:39:04;;;;;;;2.00;1.10;;;24.10;57.40;;;;;;5092525;28;20870;-65
2022/06/06 04:41:36;;;;;;;2.03;1.10;;;24.10;57.40;;;;;;5093688;28;20475;-64
2022/06/06 04:44:16;;;;;;;2.13;1.20;;;24.10;57.50;;;;;;5093268;28;20529;-65
2022/06/06 04:46:45;;;;;;;2.15;1.20;;;24.10;57.50;;;;;;5092390;28;20451;-65
2022/06/06 04:49:12;;;;;;;2.58;1.20;;;24.10;57.50;;;;;;5093624;28;20381;-65
2022/06/06 04:51:41;;;;;;;2.08;1.30;;;24.10;57.50;;;;;;5101276;28;20799;-65
2022/06/06 04:54:13;;;;;;;2.47;1.30;;;24.10;57.50;;;;;;5113272;28;20393;-65
2022/06/06 04:56:39;;;;;;;2.70;1.40;;;24.10;57.20;;;;;;5113809;28;20424;-65
2022/06/06 04:59:10;;;;;;;2.40;1.23;;;24.10;57.40;;;;;;5113725;28;20392;-65
2022/06/06 05:01:37;;;;;;;1.70;1.20;;;24.10;57.20;;;;;;5113666;28;20388;-65
2022/06/06 05:04:02;;;;;;;2.42;1.42;;;24.10;57.40;;;;;;5113136;28;20964;-65
2022/06/06 05:06:53;;;;;;;2.20;1.40;;;24.10;57.20;;;;;;5113650;28;20475;-65
2022/06/06 05:09:50;;;;;;;3.00;1.38;;;24.10;56.80;;;;;;5113559;28;20795;-64
2022/06/06 05:12:39;;;;;;;4.63;1.40;;;24.10;57.30;;;;;;5113442;28;20900;-65
2022/06/06 05:15:17;;;;;;;4.80;1.40;;;24.10;58.30;;;;;;5112210;28;20502;-65
2022/06/06 05:18:20;;;;;;;5.43;2.53;;;24.20;58.40;;;;;;5113642;28;20399;-65
2022/06/06 05:20:53;;;;;;;8.38;6.10;;;24.20;58.90;;;;;;5113257;28;20380;-65
2022/06/06 05:23:25;;;;;;;8.88;4.60;;;24.30;60.70;;;;;;5112937;28;20429;-65
2022/06/06 05:26:02;;;;;;;5.22;3.47;;;24.30;60.20;;;;;;5112491;28;20888;-65
2022/06/06 05:29:06;;;;;;;6.55;2.60;;;24.40;60.40;;;;;;5113191;28;20384;-66
2022/06/06 05:31:49;;;;;;;4.45;2.50;;;24.40;60.40;;;;;;5113128;28;20926;-66
2022/06/06 05:34:43;;;;;;;6.20;2.33;;;24.40;59.80;;;;;;5113096;28;20380;-65
2022/06/06 05:37:24;;;;;;;6.20;2.30;;;24.40;59.80;;;;;;5112861;28;20396;-64
2022/06/06 05:40:28;;;;;;;5.60;2.40;;;24.40;58.60;;;;;;5112415;28;20384;-65
2022/06/06 05:43:11;;;;;;;4.70;2.30;;;24.40;59.40;;;;;;5111543;28;20403;-65
2022/06/06 05:45:52;;;;;;;5.18;1.90;;;24.40;59.60;;;;;;5112774;28;20592;-65
2022/06/06 05:48:17;;;;;;;4.22;1.65;;;24.40;58.70;;;;;;5112833;28;20392;-65
2022/06/06 05:50:49;;;;;;;4.18;1.70;;;24.40;58.40;;;;;;5112572;28;20385;-65
2022/06/06 05:53:31;;;;;;;5.78;1.60;;;24.40;58.40;;;;;;5112492;28;20450;-65
2022/06/06 05:56:16;;;;;;;4.78;1.70;;;24.40;58.40;;;;;;5112218;28;20380;-65
2022/06/06 05:58:53;;;;;;;5.80;1.70;;;24.40;58.50;;;;;;5112544;28;20380;-65
2022/06/06 06:01:27;;;;;;;4.70;1.50;;;24.40;58.40;;;;;;5103100;28;20886;-65
2022/06/06 06:04:19;;;;;;;2.95;1.60;;;24.40;58.50;;;;;;5090397;28;20387;-65
2022/06/06 06:07:05;;;;;;;3.30;1.50;;;24.40;58.40;;;;;;5090759;28;20385;-65
2022/06/06 06:09:49;;;;;;;4.27;1.40;;;24.40;58.30;;;;;;5090887;28;20390;-65
2022/06/06 06:12:45;;;;;;;7.07;1.85;;;24.40;58.20;;;;;;5101623;28;20412;-66
2022/06/06 06:15:31;;;;;;;8.85;2.80;;;24.40;58.80;;;;;;5112119;28;20384;-65
2022/06/06 06:17:59;;;;;;;13.02;8.40;;;24.50;61.00;;;;;;5110478;28;20389;-65
2022/06/06 06:20:28;;;;;;;7.88;3.15;;;24.50;61.50;;;;;;5103094;28;20398;-65
2022/06/06 06:23:06;;;;;;;4.53;2.00;;;24.60;59.70;;;;;;5103188;28;20385;-65
2022/06/06 06:25:35;;;;;;;6.82;1.90;;;24.50;59.30;;;;;;5091444;28;20408;-65
2022/06/06 06:28:07;;;;;;;8.10;2.10;;;24.50;59.50;;;;;;5089816;28;20382;-65
2022/06/06 06:31:00;;;;;;;5.75;2.25;;;24.50;59.20;;;;;;5090354;28;20405;-65
2022/06/06 06:33:33;;;;;;;7.28;1.98;;;24.60;59.50;;;;;;5091644;28;20867;-65
2022/06/06 06:36:04;;;;;;;8.88;1.92;;;24.60;59.30;;;;;;5089622;28;20378;-64
2022/06/06 06:38:50;;;;;;;5.53;1.80;;;24.60;59.40;;;;;;5091300;28;20412;-65
2022/06/06 06:41:30;;;;;;;5.07;2.00;;;24.60;59.40;;;;;;5091520;28;20378;-64
2022/06/06 06:44:13;;;;;;;3.75;1.80;;;24.60;59.20;;;;;;5089773;28;20411;-64
2022/06/06 06:46:46;;;;;;;5.13;1.88;;;24.60;59.00;;;;;;5090141;28;20390;-64
2022/06/06 06:49:30;;;;;;;5.18;2.00;;;24.60;59.50;;;;;;5091412;28;20460;-64
2022/06/06 06:52:04;;;;;;;4.90;1.80;;;24.60;60.10;;;;;;5090757;28;20554;-65
2022/06/06 06:54:47;;;;;;;4.50;1.80;;;24.70;59.90;;;;;;5076850;28;20818;-65
2022/06/06 06:57:33;;;;;;;3.67;1.90;;;24.70;60.00;;;;;;5071276;28;20780;-64
2022/06/06 07:00:20;;;;;;;3.28;1.60;;;24.70;59.70;;;;;;5034349;28;20874;-64
2022/06/06 07:09:41;;;;;;;3.17;1.80;;;24.70;58.40;;;;;;5045350;28;20902;-63
2022/06/06 07:12:09;;;;;;;4.30;1.90;;;24.70;58.50;;;;;;5051950;28;20903;-63
2022/06/06 07:14:56;;;;;;;7.30;2.10;;;24.70;58.40;;;;;;5070766;28;20392;-63
2022/06/06 07:17:24;;;;;;;8.40;2.17;;;24.70;58.10;;;;;;5070967;28;20414;-63
2022/06/06 07:20:01;;;;;;;10.48;2.75;;;24.70;58.10;;;;;;5070901;28;20392;-63
2022/06/06 07:22:59;;;;;;;9.60;2.95;;;24.70;58.20;;;;;;5053079;28;20450;-63
2022/06/06 07:25:17;;;;;;;8.80;2.53;;;24.60;58.00;;;;;;5070804;28;20395;-63
2022/06/06 07:27:43;;;;;;;7.80;2.50;;;24.60;58.00;;;;;;5071105;28;20485;-63
2022/06/06 07:30:09;;;;;;;8.23;2.55;;;24.60;58.10;;;;;;5070339;28;20383;-63
2022/06/06 07:32:53;;;;;;;8.00;2.63;;;24.70;58.30;;;;;;5070773;28;20911;-63
2022/06/06 07:35:26;;;;;;;5.82;2.22;;;24.60;58.40;;;;;;5070803;28;20442;-63
2022/06/06 07:38:00;;;;;;;7.18;2.50;;;24.70;58.30;;;;;;5052903;28;20395;-63
2022/06/06 07:40:38;;;;;;;4.90;2.20;;;24.70;58.30;;;;;;5071100;28;20743;-64
2022/06/06 07:43:16;;;;;;;6.35;2.03;;;24.70;58.30;;;;;;5070571;28;20380;-63
2022/06/06 07:45:45;;;;;;;4.65;2.20;;;24.70;58.20;;;;;;5052920;28;20743;-63
2022/06/06 07:48:35;;;;;;;6.70;1.95;;;24.70;58.20;;;;;;5054640;28;20884;-63
2022/06/06 07:51:15;;;;;;;4.60;2.00;;;24.70;58.20;;;;;;5074126;28;20761;-63
2022/06/06 07:54:07;;;;;;;4.03;1.92;;;24.70;58.20;;;;;;5085961;28;20416;-63
2022/06/06 07:56:51;;;;;;;4.18;1.90;;;24.70;58.20;;;;;;5093261;28;20424;-63
2022/06/06 07:59:38;;;;;;;3.45;1.90;;;24.70;58.10;;;;;;5094534;28;20381;-63
2022/06/06 08:02:31;;;;;;;4.72;2.25;;;24.70;58.00;;;;;;5093882;28;20407;-63
2022/06/06 08:05:11;;;;;;;4.13;2.00;;;24.70;58.00;;;;;;5094352;28;20386;-63
2022/06/06 08:07:37;;;;;;;4.90;1.65;;;24.70;58.00;;;;;;5094250;28;20394;-63
2022/06/06 08:10:22;;;;;;;2.77;2.00;;;24.70;57.90;;;;;;5093769;28;20443;-63
2022/06/06 08:13:01;;;;;;;5.07;2.17;;;24.70;57.90;;;;;;5094113;28;20440;-63
2022/06/06 08:15:47;;;;;;;4.00;1.77;;;24.70;57.80;;;;;;5094160;28;20801;-63
2022/06/06 08:18:51;;;;;;;3.50;2.00;;;24.70;57.80;;;;;;5093692;28;20799;-63
2022/06/06 08:21:34;;;;;;;5.15;1.80;;;24.70;57.80;;;;;;5083210;28;20497;-63
2022/06/06 08:24:03;;;;;;;3.83;1.70;;;24.70;57.80;;;;;;5093482;28;20402;-63
2022/06/06 08:26:33;;;;;;;3.97;1.88;;;24.70;57.70;;;;;;5093936;28;20397;-63
2022/06/06 08:29:01;;;;;;;2.97;1.73;;;24.70;57.60;;;;;;5093866;28;20382;-63
2022/06/06 08:31:26;;;;;;;2.60;1.80;;;24.70;57.60;;;;;;5093845;28;20414;-63
2022/06/06 08:33:52;;;;;;;3.35;1.88;;;24.70;57.40;;;;;;5093784;28;20454;-63
2022/06/06 08:36:35;;;;;;;2.97;1.83;;;24.70;57.40;;;;;;5093325;28;20934;-63
2022/06/06 08:39:16;;;;;;;2.28;2.00;;;24.70;57.40;;;;;;5093626;28;20890;-63
2022/06/06 08:42:07;;;;;;;3.33;1.63;;;24.70;57.30;;;;;;5093744;28;20390;-63
2022/06/06 08:45:08;;;;;;;3.38;1.75;;;24.70;57.30;;;;;;5093649;28;20382;-63
2022/06/06 08:48:04;;;;;;;2.53;1.80;;;24.70;57.20;;;;;;5093575;28;20428;-63
2022/06/06 08:50:45;;;;;;;3.05;1.67;;;24.70;57.20;;;;;;5093364;28;20482;-63
2022/06/06 08:53:38;;;;;;;2.35;1.70;;;24.70;57.20;;;;;;5093165;28;20736;-63
2022/06/06 08:56:33;;;;;;;2.95;1.80;;;24.70;57.10;;;;;;5092820;28;20382;-63
2022/06/06 08:59:14;;;;;;;3.00;1.90;;;24.70;57.10;;;;;;5087922;28;20856;-63
2022/06/06 09:02:14;;;;;;;3.05;1.70;;;24.70;57.10;;;;;;5091900;28;20397;-63
2022/06/06 09:05:18;;;;;;;1.88;1.60;;;24.70;57.10;;;;;;5091987;28;20827;-63
2022/06/06 09:08:07;;;;;;;2.50;1.42;;;24.80;57.10;;;;;;5091860;28;20422;-63
2022/06/06 09:11:04;;;;;;;2.13;1.52;;;24.70;57.00;;;;;;5091827;28;20390;-63
2022/06/06 09:13:36;;;;;;;2.33;1.70;;;24.70;57.00;;;;;;5051372;28;20428;-63
2022/06/06 09:16:33;;;;;;;2.22;1.73;;;24.70;57.00;;;;;;5091143;28;20480;-63
2022/06/06 09:19:22;;;;;;;2.88;1.90;;;24.70;56.90;;;;;;5092811;28;20818;-63
2022/06/06 09:22:23;;;;;;;1.88;1.67;;;24.80;56.90;;;;;;5092823;28;20734;-63
2022/06/06 09:24:58;;;;;;;2.00;1.70;;;24.70;56.90;;;;;;5092032;28;20875;-63
2022/06/06 09:27:24;;;;;;;2.50;1.80;;;24.70;56.90;;;;;;5091549;28;20390;-63
2022/06/06 09:30:17;;;;;;;2.03;1.70;;;24.70;56.90;;;;;;5091355;28;20409;-63
2022/06/06 09:33:15;;;;;;;2.00;1.75;;;24.70;56.90;;;;;;5092610;28;20464;-63
2022/06/06 09:36:04;;;;;;;2.35;1.67;;;24.80;56.90;;;;;;5091313;28;20397;-63
2022/06/06 09:39:00;;;;;;;1.67;1.50;;;24.70;56.90;;;;;;5092641;28;20775;-63
2022/06/06 09:41:40;;;;;;;2.03;1.83;;;24.70;56.80;;;;;;5092612;28;20400;-63
2022/06/06 09:44:50;;;;;;;2.53;1.60;;;24.70;56.80;;;;;;5091900;28;20382;-64
2022/06/06 09:47:43;;;;;;;2.10;1.90;;;24.70;56.70;;;;;;5061062;28;20401;-63
2022/06/06 09:50:27;;;;;;;1.90;1.70;;;24.80;56.80;;;;;;5091981;28;20473;-63
2022/06/06 09:52:58;;;;;;;2.20;1.70;;;24.70;56.70;;;;;;5091791;28;20480;-63
2022/06/06 10:01:24;;;;;;;1.98;1.67;;;24.80;56.70;;;;;;5092171;28;20422;-63
2022/06/06 10:04:08;;;;;;;2.00;1.77;;;24.80;56.70;;;;;;5092131;28;20390;-63
2022/06/06 10:07:05;;;;;;;1.98;1.77;;;24.80;56.70;;;;;;5090814;28;20399;-63
2022/06/06 10:09:33;;;;;;;2.13;1.92;;;24.70;56.60;;;;;;5091209;28;20390;-63
2022/06/06 10:12:26;;;;;;;1.90;1.70;;;24.70;56.60;;;;;;5091589;28;20509;-63
2022/06/06 10:15:28;;;;;;;1.95;1.70;;;24.70;56.60;;;;;;5091860;28;20374;-63
2022/06/06 10:17:57;;;;;;;1.92;1.73;;;24.70;56.60;;;;;;5091871;28;20381;-63
2022/06/06 10:20:25;;;;;;;2.00;1.80;;;24.70;56.60;;;;;;5091376;28;20931;-63
2022/06/06 10:23:12;;;;;;;1.80;1.50;;;24.70;56.60;;;;;;5091700;28;20433;-63
2022/06/06 10:25:58;;;;;;;1.90;1.70;;;24.70;56.60;;;;;;5091754;28;20387;-63
2022/06/06 10:28:54;;;;;;;1.98;1.77;;;24.70;56.60;;;;;;5091300;28;20424;-63
2022/06/06 10:31:34;;;;;;;2.05;1.60;;;24.70;56.60;;;;;;5090274;28;20828;-63
2022/06/06 10:34:28;;;;;;;1.85;1.60;;;24.70;56.60;;;;;;5091589;28;20458;-63
2022/06/06 10:37:28;;;;;;;1.90;1.67;;;24.70;56.60;;;;;;5091542;28;20405;-63
2022/06/06 10:39:56;;;;;;;2.13;1.65;;;24.70;56.60;;;;;;5091391;28;20386;-63
2022/06/06 10:42:37;;;;;;;3.80;2.03;;;24.70;56.60;;;;;;5091166;28;20389;-63
2022/06/06 10:45:09;;;;;;;2.50;1.70;;;24.70;56.60;;;;;;5101944;28;20448;-63
2022/06/06 10:48:16;;;;;;;3.88;1.90;;;25.00;56.10;;;;;;5071423;28;20399;-63
2022/06/06 10:54:15;;;;;;;4.03;2.13;;;24.90;56.10;;;;;;5070374;28;20491;-63
2022/06/06 10:56:56;;;;;;;4.97;2.20;;;24.80;56.60;;;;;;5071639;28;20387;-64
2022/06/06 10:59:41;;;;;;;6.30;2.30;;;24.80;58.00;;;;;;5071342;28;20513;-63
2022/06/06 11:03:07;;;;;;;9.80;2.90;;;24.90;58.20;;;;;;5078075;28;20459;-65
2022/06/06 11:05:45;;;;;;;7.10;2.75;;;25.00;58.10;;;;;;5065603;28;20486;-64
2022/06/06 11:08:30;;;;;;;5.32;2.90;;;25.00;57.60;;;;;;5090098;28;20397;-64
2022/06/06 11:11:14;;;;;;;6.55;2.83;;;25.10;57.10;;;;;;5086901;28;20390;-64
2022/06/06 11:13:55;;;;;;;4.75;2.70;;;25.10;56.80;;;;;;5090147;28;20425;-64
2022/06/06 11:17:04;;;;;;;7.55;3.30;;;25.20;56.50;;;;;;5092038;28;20414;-64
2022/06/06 11:19:55;;;;;;;5.43;3.40;;;25.20;56.40;;;;;;5091018;28;20481;-64
2022/06/06 11:22:43;;;;;;;6.15;3.50;;;25.30;56.40;;;;;;5091261;28;20734;-64
2022/06/06 11:25:11;;;;;;;5.65;3.45;;;25.30;56.30;;;;;;5095526;28;20385;-64
2022/06/06 11:28:14;;;;;;;6.72;3.60;;;25.30;56.30;;;;;;5095249;28;20385;-64
2022/06/06 11:30:58;;;;;;;6.03;3.72;;;25.40;56.30;;;;;;5095090;28;20451;-64
2022/06/06 11:33:45;;;;;;;8.52;4.00;;;25.50;56.70;;;;;;5093610;28;20424;-64
2022/06/06 11:36:35;;;;;;;5.55;3.80;;;25.50;56.70;;;;;;5092682;28;20390;-64
2022/06/06 11:39:32;;;;;;;7.63;6.85;;;25.50;56.40;;;;;;5090653;28;20390;-64
2022/06/06 11:42:35;;;;;;;7.88;5.40;;;25.70;57.00;;;;;;5075206;28;20864;-64
2022/06/06 11:45:15;;;;;;;4.85;4.13;;;25.70;56.40;;;;;;5074436;28;20392;-64
2022/06/06 11:48:05;;;;;;;4.47;4.05;;;25.70;56.10;;;;;;5074398;28;20399;-64
2022/06/06 11:50:58;;;;;;;5.30;3.80;;;25.70;56.10;;;;;;5074016;28;20376;-64
2022/06/06 11:53:51;;;;;;;5.82;3.80;;;25.70;56.00;;;;;;5072926;28;20419;-64
2022/06/06 11:56:39;;;;;;;4.38;3.67;;;25.60;56.00;;;;;;5072097;28;20453;-64
2022/06/06 11:59:48;;;;;;;4.03;3.20;;;25.60;56.00;;;;;;5074227;28;20804;-64
2022/06/06 12:02:35;;;;;;;3.75;3.40;;;25.60;56.40;;;;;;5075198;28;20395;-64
2022/06/06 12:05:09;;;;;;;4.22;3.03;;;25.60;56.80;;;;;;5074555;28;20388;-64
2022/06/06 12:07:50;;;;;;;4.20;3.20;;;25.50;56.90;;;;;;5074449;28;20383;-64
2022/06/06 12:10:30;;;;;;;3.78;3.03;;;25.50;56.70;;;;;;5072775;28;20380;-64
2022/06/06 12:13:02;;;;;;;3.72;3.00;;;25.50;57.00;;;;;;5078550;28;20445;-64
2022/06/06 12:15:52;;;;;;;3.10;2.80;;;25.50;57.00;;;;;;5091713;28;20444;-64
2022/06/06 12:18:27;;;;;;;3.72;2.70;;;25.50;57.00;;;;;;5090252;28;20398;-64
2022/06/06 12:21:03;;;;;;;3.30;2.60;;;25.50;57.00;;;;;;5091460;28;20398;-64
2022/06/06 12:23:57;;;;;;;4.03;2.87;;;25.50;57.10;;;;;;5092662;28;20382;-64
2022/06/06 12:26:59;;;;;;;4.07;2.92;;;25.40;57.00;;;;;;5089458;28;20394;-64
2022/06/06 12:29:36;;;;;;;3.10;2.50;;;25.50;57.20;;;;;;5091112;28;20868;-64
2022/06/06 12:32:12;;;;;;;3.13;2.50;;;25.50;57.10;;;;;;5091634;28;20929;-64
2022/06/06 12:35:01;;;;;;;3.17;2.53;;;25.50;57.20;;;;;;5090421;28;20387;-64
2022/06/06 12:38:15;;;;;;;2.70;2.30;;;25.50;57.20;;;;;;5090032;28;20418;-64
2022/06/06 12:40:56;;;;;;;3.55;2.38;;;25.50;57.10;;;;;;5054840;28;20389;-64
2022/06/06 12:43:38;;;;;;;2.83;2.50;;;25.50;57.00;;;;;;5090385;28;20390;-64
2022/06/06 12:46:42;;;;;;;2.42;2.15;;;25.50;57.10;;;;;;5090806;28;20435;-64
2022/06/06 12:49:07;;;;;;;3.00;2.42;;;25.50;57.00;;;;;;5092251;28;20481;-64
2022/06/06 12:51:39;;;;;;;3.57;2.40;;;25.50;56.90;;;;;;5094621;28;20552;-64
2022/06/06 12:54:17;;;;;;;2.50;2.30;;;25.50;57.60;;;;;;5092068;28;20405;-64
2022/06/06 12:57:01;;;;;;;4.68;2.40;;;25.50;57.00;;;;;;5089891;28;20531;-64
2022/06/06 12:59:57;;;;;;;3.63;2.17;;;25.60;57.20;;;;;;5090725;28;20385;-64
2022/06/06 13:02:39;;;;;;;4.60;2.05;;;25.60;57.20;;;;;;5089557;28;20425;-64
2022/06/06 13:05:23;;;;;;;4.00;2.20;;;25.60;57.20;;;;;;5091184;28;20912;-64
2022/06/06 13:08:10;;;;;;;3.95;2.20;;;25.60;57.40;;;;;;5092766;28;20412;-64
2022/06/06 13:11:02;;;;;;;4.20;2.20;;;25.60;57.20;;;;;;5090426;28;20751;-64
2022/06/06 13:13:53;;;;;;;4.13;2.50;;;25.60;56.50;;;;;;5091958;28;20484;-64
2022/06/06 13:16:28;;;;;;;5.00;2.58;;;25.60;56.40;;;;;;5090603;28;20742;-64
2022/06/06 13:19:20;;;;;;;4.03;2.20;;;25.60;56.20;;;;;;5090456;28;20909;-64
2022/06/06 13:21:55;;;;;;;3.35;2.35;;;25.50;55.90;;;;;;5090769;28;20446;-64
2022/06/06 13:25:05;;;;;;;3.10;2.20;;;25.50;55.90;;;;;;5091715;28;20401;-64
2022/06/06 13:27:51;;;;;;;3.13;2.10;;;25.50;55.90;;;;;;5092337;28;20421;-64
2022/06/06 13:30:20;;;;;;;3.10;1.98;;;25.50;55.80;;;;;;5092606;28;20431;-63
2022/06/06 13:33:10;;;;;;;3.35;2.20;;;25.50;55.90;;;;;;5089231;28;20465;-64
2022/06/06 13:36:14;;;;;;;4.53;2.40;;;25.50;55.90;;;;;;5092267;28;20381;-64
2022/06/06 13:39:13;;;;;;;3.75;2.30;;;25.50;55.60;;;;;;5092111;28;20386;-63
2022/06/06 13:42:04;;;;;;;4.72;2.50;;;25.50;55.80;;;;;;5092401;28;20383;-63
2022/06/06 13:45:05;;;;;;;5.53;2.50;;;25.50;55.80;;;;;;5075958;28;20418;-64
2022/06/06 13:47:30;;;;;;;4.57;2.30;;;25.50;55.50;;;;;;5091108;28;20398;-64
2022/06/06 13:50:08;;;;;;;3.73;2.40;;;25.50;55.10;;;;;;5092092;28;20866;-64
2022/06/06 13:52:46;;;;;;;3.58;2.50;;;25.50;55.30;;;;;;5091314;28;20406;-64
2022/06/06 13:55:30;;;;;;;6.17;2.40;;;25.40;55.10;;;;;;5091036;28;20396;-65
2022/06/06 13:58:26;;;;;;;3.28;2.47;;;25.40;55.00;;;;;;5092262;28;20497;-64
2022/06/06 14:01:11;;;;;;;8.43;2.63;;;25.50;55.20;;;;;;5092168;28;20390;-64
2022/06/06 14:03:58;;;;;;;7.97;2.77;;;25.40;54.90;;;;;;5091912;28;21096;-64
2022/06/06 14:06:42;;;;;;;10.02;3.20;;;25.40;55.20;;;;;;5090364;28;20393;-66
2022/06/06 14:09:08;;;;;;;92.32;21.05;;;25.40;55.50;;;;;;5090552;28;20831;-64
2022/06/06 14:11:42;;;;;;;71.77;17.30;;;25.40;55.90;;;;;;5090497;28;20445;-64
2022/06/06 14:14:08;;;;;;;81.33;21.73;;;25.50;56.70;;;;;;5092408;28;20388;-64
2022/06/06 14:16:34;;;;;;;65.05;19.15;;;25.50;61.10;;;;;;5091426;28;20424;-65
2022/06/06 14:19:23;;;;;;;70.90;20.10;;;25.60;65.60;;;;;;5090420;28;20414;-65